sensor_id;sensor_type;location;lat;lon;timestamp;P1;durP1;ratioP1;P2;durP2;ratioP2
22711;SDS011;11523;50.390;8.072;2022-11-15T04:47:57;8.27;;;7.15;;
22711;SDS011;11523;50.390;8.072;2022-11-15T04:50:23;12.10;;;8.27;;
22711;SDS011;11523;50.390;8.072;2022-11-15T04:52:50;12.18;;;9.07;;
22711;SDS011;11523;50.390;8.072;2022-11-15T04:55:16;10.90;;;7.70;;
22711;SDS011;11523;50.390;8.072;2022-11-15T04:57:42;9.45;;;7.40;;
22711;SDS011;11523;50.390;8.072;2022-11-15T05:00:10;9.73;;;8.20;;
22711;SDS011;11523;50.390;8.072;2022-11-15T05:02:36;9.20;;;7.68;;
22711;SDS011;11523;50.390;8.072;2022-11-15T05:05:21;11.15;;;8.43;;
22711;SDS011;11523;50.390;8.072;2022-11-15T05:07:47;9.52;;;8.52;;
22711;SDS011;11523;50.390;8.072;2022-11-15T05:10:13;12.13;;;7.90;;
22711;SDS011;11523;50.390;8.072;2022-11-15T05:12:39;9.85;;;8.05;;
22711;SDS011;11523;50.390;8.072;2022-11-15T05:15:05;10.35;;;7.88;;
22711;SDS011;11523;50.390;8.072;2022-11-15T05:17:31;12.43;;;8.88;;
22711;SDS011;11523;50.390;8.072;2022-11-15T05:19:57;10.88;;;8.98;;
22711;SDS011;11523;50.390;8.072;2022-11-15T05:22:23;10.40;;;8.95;;
22711;SDS011;11523;50.390;8.072;2022-11-15T05:24:49;11.52;;;8.80;;
22711;SDS011;11523;50.390;8.072;2022-11-15T05:27:15;10.23;;;9.13;;
22711;SDS011;11523;50.390;8.072;2022-11-15T05:29:41;12.02;;;9.02;;
22711;SDS011;11523;50.390;8.072;2022-11-15T05:32:07;10.82;;;8.98;;
22711;SDS011;11523;50.390;8.072;2022-11-15T05:34:34;12.63;;;9.45;;
22711;SDS011;11523;50.390;8.072;2022-11-15T05:37:00;10.65;;;9.23;;
22711;SDS011;11523;50.390;8.072;2022-11-15T05:39:26;13.40;;;10.02;;
22711;SDS011;11523;50.390;8.072;2022-11-15T05:42:04;12.82;;;9.82;;
22711;SDS011;11523;50.390;8.072;2022-11-15T05:44:31;10.60;;;8.93;;
22711;SDS011;11523;50.390;8.072;2022-11-15T05:46:57;10.93;;;8.35;;
22711;SDS011;11523;50.390;8.072;2022-11-15T05:49:25;12.18;;;9.07;;
22711;SDS011;11523;50.390;8.072;2022-11-15T05:51:52;13.38;;;9.50;;
22711;SDS011;11523;50.390;8.072;2022-11-15T05:54:19;15.90;;;9.57;;
22711;SDS011;11523;50.390;8.072;2022-11-15T05:56:45;10.55;;;8.98;;
22711;SDS011;11523;50.390;8.072;2022-11-15T05:59:11;12.65;;;9.23;;
22711;SDS011;11523;50.390;8.072;2022-11-15T06:01:37;10.45;;;9.30;;
22711;SDS011;11523;50.390;8.072;2022-11-15T06:04:04;13.02;;;9.70;;
22711;SDS011;11523;50.390;8.072;2022-11-15T06:06:30;13.55;;;10.88;;
22711;SDS011;11523;50.390;8.072;2022-11-15T06:08:55;11.95;;;10.50;;
22711;SDS011;11523;50.390;8.072;2022-11-15T06:11:21;13.57;;;9.70;;
22711;SDS011;11523;50.390;8.072;2022-11-15T06:13:47;10.15;;;9.02;;
22711;SDS011;11523;50.390;8.072;2022-11-15T06:16:13;14.45;;;10.48;;
22711;SDS011;11523;50.390;8.072;2022-11-15T06:18:39;15.75;;;10.77;;
22711;SDS011;11523;50.390;8.072;2022-11-15T06:21:05;11.50;;;9.82;;
22711;SDS011;11523;50.390;8.072;2022-11-15T06:23:32;12.20;;;10.07;;
22711;SDS011;11523;50.390;8.072;2022-11-15T06:25:58;12.45;;;9.75;;
22711;SDS011;11523;50.390;8.072;2022-11-15T06:28:25;12.88;;;10.43;;
22711;SDS011;11523;50.390;8.072;2022-11-15T06:30:53;13.27;;;10.50;;
22711;SDS011;11523;50.390;8.072;2022-11-15T06:33:19;13.05;;;9.82;;
22711;SDS011;11523;50.390;8.072;2022-11-15T06:35:45;14.07;;;10.48;;
22711;SDS011;11523;50.390;8.072;2022-11-15T06:38:11;11.55;;;10.00;;
22711;SDS011;11523;50.390;8.072;2022-11-15T06:40:39;13.00;;;9.82;;
22711;SDS011;11523;50.390;8.072;2022-11-15T06:43:05;11.73;;;9.70;;
22711;SDS011;11523;50.390;8.072;2022-11-15T06:45:31;12.73;;;9.50;;
22711;SDS011;11523;50.390;8.072;2022-11-15T06:47:57;11.65;;;9.30;;
22711;SDS011;11523;50.390;8.072;2022-11-15T06:50:24;14.50;;;10.07;;
22711;SDS011;11523;50.390;8.072;2022-11-15T06:52:50;14.05;;;10.60;;
22711;SDS011;11523;50.390;8.072;2022-11-15T06:55:16;21.52;;;12.32;;
22711;SDS011;11523;50.390;8.072;2022-11-15T06:57:49;13.07;;;10.73;;
22711;SDS011;11523;50.390;8.072;2022-11-15T07:00:16;16.10;;;10.65;;
22711;SDS011;11523;50.390;8.072;2022-11-15T07:02:42;14.40;;;12.18;;
22711;SDS011;11523;50.390;8.072;2022-11-15T07:05:08;16.05;;;13.02;;
22711;SDS011;11523;50.390;8.072;2022-11-15T07:07:34;15.85;;;11.80;;
22711;SDS011;11523;50.390;8.072;2022-11-15T07:10:00;19.13;;;13.55;;
22711;SDS011;11523;50.390;8.072;2022-11-15T07:12:26;18.02;;;13.43;;
22711;SDS011;11523;50.390;8.072;2022-11-15T07:14:52;15.68;;;13.43;;
22711;SDS011;11523;50.390;8.072;2022-11-15T07:17:18;16.42;;;13.43;;
22711;SDS011;11523;50.390;8.072;2022-11-15T07:19:44;15.93;;;13.13;;
22711;SDS011;11523;50.390;8.072;2022-11-15T07:22:09;19.90;;;13.30;;
22711;SDS011;11523;50.390;8.072;2022-11-15T07:24:35;17.23;;;13.25;;
22711;SDS011;11523;50.390;8.072;2022-11-15T07:27:01;18.48;;;12.60;;
22711;SDS011;11523;50.390;8.072;2022-11-15T07:29:27;19.10;;;13.30;;
22711;SDS011;11523;50.390;8.072;2022-11-15T07:31:53;21.15;;;13.68;;
22711;SDS011;11523;50.390;8.072;2022-11-15T07:34:19;17.65;;;13.38;;
22711;SDS011;11523;50.390;8.072;2022-11-15T07:36:45;19.77;;;15.00;;
22711;SDS011;11523;50.390;8.072;2022-11-15T07:39:11;17.45;;;13.68;;
22711;SDS011;11523;50.390;8.072;2022-11-15T07:41:38;17.25;;;13.07;;
22711;SDS011;11523;50.390;8.072;2022-11-15T07:44:04;18.80;;;14.30;;
22711;SDS011;11523;50.390;8.072;2022-11-15T07:46:31;20.92;;;14.27;;
22711;SDS011;11523;50.390;8.072;2022-11-15T07:48:57;18.05;;;13.63;;
22711;SDS011;11523;50.390;8.072;2022-11-15T07:51:23;18.55;;;14.40;;
22711;SDS011;11523;50.390;8.072;2022-11-15T07:53:48;19.58;;;14.65;;
22711;SDS011;11523;50.390;8.072;2022-11-15T07:56:14;20.10;;;13.65;;
22711;SDS011;11523;50.390;8.072;2022-11-15T07:58:40;19.10;;;12.70;;
22711;SDS011;11523;50.390;8.072;2022-11-15T08:01:07;21.25;;;13.45;;
22711;SDS011;11523;50.390;8.072;2022-11-15T08:03:33;22.23;;;13.20;;
22711;SDS011;11523;50.390;8.072;2022-11-15T08:05:59;22.90;;;15.02;;
22711;SDS011;11523;50.390;8.072;2022-11-15T08:08:25;28.35;;;16.63;;
22711;SDS011;11523;50.390;8.072;2022-11-15T08:10:51;21.00;;;15.57;;
22711;SDS011;11523;50.390;8.072;2022-11-15T08:13:17;18.73;;;16.30;;
22711;SDS011;11523;50.390;8.072;2022-11-15T08:15:43;21.73;;;16.10;;
22711;SDS011;11523;50.390;8.072;2022-11-15T08:18:10;23.70;;;15.43;;
22711;SDS011;11523;50.390;8.072;2022-11-15T08:20:37;23.13;;;15.25;;
22711;SDS011;11523;50.390;8.072;2022-11-15T08:23:03;18.83;;;13.70;;
22711;SDS011;11523;50.390;8.072;2022-11-15T08:25:30;20.42;;;15.10;;
22711;SDS011;11523;50.390;8.072;2022-11-15T08:27:57;17.52;;;14.73;;
22711;SDS011;11523;50.390;8.072;2022-11-15T08:30:24;22.08;;;14.80;;
22711;SDS011;11523;50.390;8.072;2022-11-15T08:32:50;19.80;;;15.45;;
22711;SDS011;11523;50.390;8.072;2022-11-15T08:35:17;20.05;;;15.55;;
22711;SDS011;11523;50.390;8.072;2022-11-15T08:37:43;19.58;;;14.63;;
22711;SDS011;11523;50.390;8.072;2022-11-15T08:40:09;24.33;;;16.30;;
22711;SDS011;11523;50.390;8.072;2022-11-15T08:42:35;20.15;;;16.05;;
22711;SDS011;11523;50.390;8.072;2022-11-15T08:45:01;19.50;;;15.40;;
22711;SDS011;11523;50.390;8.072;2022-11-15T08:47:27;20.40;;;14.85;;
22711;SDS011;11523;50.390;8.072;2022-11-15T08:49:53;22.02;;;15.40;;
22711;SDS011;11523;50.390;8.072;2022-11-15T08:52:19;22.13;;;14.55;;
22711;SDS011;11523;50.390;8.072;2022-11-15T08:54:45;21.60;;;16.38;;
22711;SDS011;11523;50.390;8.072;2022-11-15T08:57:11;26.13;;;18.25;;
22711;SDS011;11523;50.390;8.072;2022-11-15T08:59:37;26.02;;;17.23;;
22711;SDS011;11523;50.390;8.072;2022-11-15T09:02:03;28.70;;;15.43;;
22711;SDS011;11523;50.390;8.072;2022-11-15T09:04:29;23.85;;;15.80;;
22711;SDS011;11523;50.390;8.072;2022-11-15T09:06:55;25.92;;;17.85;;
22711;SDS011;11523;50.390;8.072;2022-11-15T09:09:21;19.33;;;16.20;;
22711;SDS011;11523;50.390;8.072;2022-11-15T09:11:47;21.17;;;14.18;;
22711;SDS011;11523;50.390;8.072;2022-11-15T09:14:14;24.58;;;15.32;;
22711;SDS011;11523;50.390;8.072;2022-11-15T09:16:40;16.80;;;13.88;;
22711;SDS011;11523;50.390;8.072;2022-11-15T09:19:06;22.10;;;14.20;;
22711;SDS011;11523;50.390;8.072;2022-11-15T09:21:32;24.27;;;14.45;;
22711;SDS011;11523;50.390;8.072;2022-11-15T09:23:58;18.45;;;14.85;;
22711;SDS011;11523;50.390;8.072;2022-11-15T09:26:24;17.90;;;14.25;;
22711;SDS011;11523;50.390;8.072;2022-11-15T09:28:50;18.40;;;14.60;;
22711;SDS011;11523;50.390;8.072;2022-11-15T09:31:16;19.25;;;13.50;;
22711;SDS011;11523;50.390;8.072;2022-11-15T09:33:45;18.77;;;15.00;;
22711;SDS011;11523;50.390;8.072;2022-11-15T09:36:11;19.02;;;13.20;;
22711;SDS011;11523;50.390;8.072;2022-11-15T09:38:37;22.27;;;14.48;;
22711;SDS011;11523;50.390;8.072;2022-11-15T09:48:57;17.85;;;12.98;;
22711;SDS011;11523;50.390;8.072;2022-11-15T09:56:40;20.20;;;13.25;;
22711;SDS011;11523;50.390;8.072;2022-11-15T10:04:36;17.40;;;12.75;;
22711;SDS011;11523;50.390;8.072;2022-11-15T10:09:54;16.10;;;12.98;;
22711;SDS011;11523;50.390;8.072;2022-11-15T10:12:22;18.02;;;12.43;;
22711;SDS011;11523;50.390;8.072;2022-11-15T10:14:48;18.80;;;12.52;;
22711;SDS011;11523;50.390;8.072;2022-11-15T10:17:24;17.70;;;11.73;;
22711;SDS011;11523;50.390;8.072;2022-11-15T10:24:52;16.48;;;11.95;;
22711;SDS011;11523;50.390;8.072;2022-11-15T10:27:24;17.77;;;12.00;;
22711;SDS011;11523;50.390;8.072;2022-11-15T10:29:50;20.85;;;12.70;;
22711;SDS011;11523;50.390;8.072;2022-11-15T10:32:17;17.25;;;12.68;;
22711;SDS011;11523;50.390;8.072;2022-11-15T10:34:43;19.67;;;12.80;;
22711;SDS011;11523;50.390;8.072;2022-11-15T10:37:09;18.95;;;13.23;;
22711;SDS011;11523;50.390;8.072;2022-11-15T10:39:35;18.05;;;13.02;;
22711;SDS011;11523;50.390;8.072;2022-11-15T10:44:43;19.23;;;13.80;;
22711;SDS011;11523;50.390;8.072;2022-11-15T10:47:26;15.80;;;12.50;;
22711;SDS011;11523;50.390;8.072;2022-11-15T10:50:27;23.45;;;13.63;;
22711;SDS011;11523;50.390;8.072;2022-11-15T10:52:52;14.27;;;10.35;;
22711;SDS011;11523;50.390;8.072;2022-11-15T10:55:25;9.07;;;7.97;;
22711;SDS011;11523;50.390;8.072;2022-11-15T10:57:53;9.55;;;7.03;;
22711;SDS011;11523;50.390;8.072;2022-11-15T11:07:57;3.25;;;2.95;;
22711;SDS011;11523;50.390;8.072;2022-11-15T11:10:23;4.05;;;2.83;;
22711;SDS011;11523;50.390;8.072;2022-11-15T11:12:49;3.42;;;3.10;;
22711;SDS011;11523;50.390;8.072;2022-11-15T11:15:15;3.55;;;2.90;;
22711;SDS011;11523;50.390;8.072;2022-11-15T11:17:54;7.97;;;3.17;;
22711;SDS011;11523;50.390;8.072;2022-11-15T11:20:42;4.28;;;2.50;;
22711;SDS011;11523;50.390;8.072;2022-11-15T11:26:15;3.83;;;2.88;;
22711;SDS011;11523;50.390;8.072;2022-11-15T11:28:54;3.88;;;2.97;;
22711;SDS011;11523;50.390;8.072;2022-11-15T11:34:13;3.72;;;3.10;;
22711;SDS011;11523;50.390;8.072;2022-11-15T11:39:18;4.80;;;2.88;;
22711;SDS011;11523;50.390;8.072;2022-11-15T11:41:50;3.55;;;2.65;;
22711;SDS011;11523;50.390;8.072;2022-11-15T11:44:23;5.35;;;3.28;;
22711;SDS011;11523;50.390;8.072;2022-11-15T11:49:28;4.35;;;2.97;;
22711;SDS011;11523;50.390;8.072;2022-11-15T11:52:08;4.07;;;2.92;;
22711;SDS011;11523;50.390;8.072;2022-11-15T11:57:28;2.97;;;2.67;;
22711;SDS011;11523;50.390;8.072;2022-11-15T12:00:09;2.85;;;2.53;;
22711;SDS011;11523;50.390;8.072;2022-11-15T12:02:39;3.53;;;2.60;;
22711;SDS011;11523;50.390;8.072;2022-11-15T12:05:11;4.35;;;2.55;;
22711;SDS011;11523;50.390;8.072;2022-11-15T12:07:39;3.80;;;2.58;;
22711;SDS011;11523;50.390;8.072;2022-11-15T12:10:14;4.47;;;2.33;;
22711;SDS011;11523;50.390;8.072;2022-11-15T12:12:44;4.53;;;2.25;;
22711;SDS011;11523;50.390;8.072;2022-11-15T12:15:18;3.13;;;2.15;;
22711;SDS011;11523;50.390;8.072;2022-11-15T12:17:45;3.78;;;2.78;;
22711;SDS011;11523;50.390;8.072;2022-11-15T12:25:29;3.38;;;2.67;;
22711;SDS011;11523;50.390;8.072;2022-11-15T12:27:59;3.30;;;3.00;;
22711;SDS011;11523;50.390;8.072;2022-11-15T12:30:31;5.03;;;2.90;;
22711;SDS011;11523;50.390;8.072;2022-11-15T12:33:30;4.53;;;3.03;;
22711;SDS011;11523;50.390;8.072;2022-11-15T12:35:57;4.32;;;3.22;;
22711;SDS011;11523;50.390;8.072;2022-11-15T12:41:13;4.25;;;2.95;;
22711;SDS011;11523;50.390;8.072;2022-11-15T12:43:40;4.32;;;2.90;;
22711;SDS011;11523;50.390;8.072;2022-11-15T12:46:10;3.90;;;2.83;;
22711;SDS011;11523;50.390;8.072;2022-11-15T12:51:08;5.97;;;3.58;;
22711;SDS011;11523;50.390;8.072;2022-11-15T12:53:34;3.75;;;3.10;;
22711;SDS011;11523;50.390;8.072;2022-11-15T12:58:41;4.70;;;3.17;;
22711;SDS011;11523;50.390;8.072;2022-11-15T13:01:51;3.67;;;2.90;;
22711;SDS011;11523;50.390;8.072;2022-11-15T13:06:40;3.42;;;2.97;;
22711;SDS011;11523;50.390;8.072;2022-11-15T13:09:52;3.08;;;2.80;;
22711;SDS011;11523;50.390;8.072;2022-11-15T13:11:53;4.65;;;3.72;;
22711;SDS011;11523;50.390;8.072;2022-11-15T13:14:34;5.13;;;4.53;;
22711;SDS011;11523;50.390;8.072;2022-11-15T13:19:42;5.72;;;3.63;;
22711;SDS011;11523;50.390;8.072;2022-11-15T13:22:11;5.57;;;3.47;;
22711;SDS011;11523;50.390;8.072;2022-11-15T13:24:55;6.70;;;3.80;;
22711;SDS011;11523;50.390;8.072;2022-11-15T13:27:21;6.75;;;3.35;;
22711;SDS011;11523;50.390;8.072;2022-11-15T13:29:47;4.60;;;3.75;;
22711;SDS011;11523;50.390;8.072;2022-11-15T13:32:14;4.20;;;3.80;;
22711;SDS011;11523;50.390;8.072;2022-11-15T13:34:44;5.72;;;3.95;;
22711;SDS011;11523;50.390;8.072;2022-11-15T13:37:33;4.32;;;3.92;;
22711;SDS011;11523;50.390;8.072;2022-11-15T13:42:57;5.00;;;3.17;;
22711;SDS011;11523;50.390;8.072;2022-11-15T13:45:23;7.10;;;3.40;;
22711;SDS011;11523;50.390;8.072;2022-11-15T13:47:57;3.85;;;3.55;;
22711;SDS011;11523;50.390;8.072;2022-11-15T13:50:27;4.67;;;3.20;;
22711;SDS011;11523;50.390;8.072;2022-11-15T13:52:56;4.45;;;3.83;;
22711;SDS011;11523;50.390;8.072;2022-11-15T13:55:23;4.88;;;4.03;;
22711;SDS011;11523;50.390;8.072;2022-11-15T13:57:51;5.93;;;4.20;;
22711;SDS011;11523;50.390;8.072;2022-11-15T14:00:25;9.10;;;4.13;;
22711;SDS011;11523;50.390;8.072;2022-11-15T14:02:52;5.10;;;4.60;;
22711;SDS011;11523;50.390;8.072;2022-11-15T14:05:19;6.78;;;4.53;;
22711;SDS011;11523;50.390;8.072;2022-11-15T14:07:59;5.18;;;4.63;;
22711;SDS011;11523;50.390;8.072;2022-11-15T14:10:30;4.97;;;4.30;;
22711;SDS011;11523;50.390;8.072;2022-11-15T14:12:57;5.38;;;4.35;;
22711;SDS011;11523;50.390;8.072;2022-11-15T14:15:33;6.18;;;5.22;;
22711;SDS011;11523;50.390;8.072;2022-11-15T14:17:59;7.68;;;6.05;;
22711;SDS011;11523;50.390;8.072;2022-11-15T14:22:53;8.18;;;6.60;;
22711;SDS011;11523;50.390;8.072;2022-11-15T14:25:23;7.80;;;6.85;;
22711;SDS011;11523;50.390;8.072;2022-11-15T14:30:34;7.95;;;6.78;;
22711;SDS011;11523;50.390;8.072;2022-11-15T14:33:00;8.52;;;7.63;;
22711;SDS011;11523;50.390;8.072;2022-11-15T14:35:26;8.02;;;7.10;;
22711;SDS011;11523;50.390;8.072;2022-11-15T14:37:52;9.20;;;7.38;;
22711;SDS011;11523;50.390;8.072;2022-11-15T14:40:19;10.15;;;7.43;;
22711;SDS011;11523;50.390;8.072;2022-11-15T14:42:45;10.18;;;8.05;;
22711;SDS011;11523;50.390;8.072;2022-11-15T14:45:15;8.25;;;7.45;;
22711;SDS011;11523;50.390;8.072;2022-11-15T14:47:42;9.73;;;7.18;;
22711;SDS011;11523;50.390;8.072;2022-11-15T14:50:12;7.38;;;6.57;;
22711;SDS011;11523;50.390;8.072;2022-11-15T14:52:38;9.15;;;6.43;;
22711;SDS011;11523;50.390;8.072;2022-11-15T14:55:10;8.60;;;6.63;;
22711;SDS011;11523;50.390;8.072;2022-11-15T14:57:37;8.18;;;6.28;;
22711;SDS011;11523;50.390;8.072;2022-11-15T15:00:03;7.90;;;6.43;;
22711;SDS011;11523;50.390;8.072;2022-11-15T15:02:30;7.30;;;6.53;;
22711;SDS011;11523;50.390;8.072;2022-11-15T15:04:56;8.23;;;6.57;;
22711;SDS011;11523;50.390;8.072;2022-11-15T15:07:25;8.13;;;7.32;;
22711;SDS011;11523;50.390;8.072;2022-11-15T15:09:51;8.15;;;7.07;;
22711;SDS011;11523;50.390;8.072;2022-11-15T15:12:19;8.18;;;7.15;;
22711;SDS011;11523;50.390;8.072;2022-11-15T15:14:45;8.35;;;7.55;;
22711;SDS011;11523;50.390;8.072;2022-11-15T15:17:11;11.13;;;7.65;;
22711;SDS011;11523;50.390;8.072;2022-11-15T15:19:37;9.25;;;7.63;;
22711;SDS011;11523;50.390;8.072;2022-11-15T15:22:03;8.65;;;7.75;;
22711;SDS011;11523;50.390;8.072;2022-11-15T15:24:29;8.23;;;7.20;;
22711;SDS011;11523;50.390;8.072;2022-11-15T15:26:55;8.75;;;7.60;;
22711;SDS011;11523;50.390;8.072;2022-11-15T15:29:21;7.65;;;6.95;;
22711;SDS011;11523;50.390;8.072;2022-11-15T15:31:47;8.40;;;7.50;;
22711;SDS011;11523;50.390;8.072;2022-11-15T15:34:13;8.27;;;6.60;;
22711;SDS011;11523;50.390;8.072;2022-11-15T15:36:39;7.75;;;6.78;;
22711;SDS011;11523;50.390;8.072;2022-11-15T15:39:07;8.20;;;6.90;;
22711;SDS011;11523;50.390;8.072;2022-11-15T15:41:34;8.00;;;7.03;;
22711;SDS011;11523;50.390;8.072;2022-11-15T15:44:00;8.48;;;6.30;;
22711;SDS011;11523;50.390;8.072;2022-11-15T15:46:25;7.70;;;6.43;;
22711;SDS011;11523;50.390;8.072;2022-11-15T15:48:52;6.68;;;5.70;;
22711;SDS011;11523;50.390;8.072;2022-11-15T15:51:18;7.63;;;5.80;;
22711;SDS011;11523;50.390;8.072;2022-11-15T15:53:44;6.38;;;5.78;;
22711;SDS011;11523;50.390;8.072;2022-11-15T15:56:10;6.47;;;5.45;;
22711;SDS011;11523;50.390;8.072;2022-11-15T15:58:36;6.88;;;6.13;;
22711;SDS011;11523;50.390;8.072;2022-11-15T16:01:02;7.47;;;5.53;;
22711;SDS011;11523;50.390;8.072;2022-11-15T16:03:28;7.20;;;5.35;;
22711;SDS011;11523;50.390;8.072;2022-11-15T16:05:54;8.38;;;5.45;;
22711;SDS011;11523;50.390;8.072;2022-11-15T16:08:21;5.97;;;5.35;;
22711;SDS011;11523;50.390;8.072;2022-11-15T16:10:47;7.82;;;5.50;;
22711;SDS011;11523;50.390;8.072;2022-11-15T16:13:13;6.40;;;5.57;;
22711;SDS011;11523;50.390;8.072;2022-11-15T16:15:39;6.88;;;5.15;;
22711;SDS011;11523;50.390;8.072;2022-11-15T16:18:06;5.65;;;4.57;;
22711;SDS011;11523;50.390;8.072;2022-11-15T16:20:37;6.18;;;4.70;;
22711;SDS011;11523;50.390;8.072;2022-11-15T16:23:05;7.97;;;5.30;;
22711;SDS011;11523;50.390;8.072;2022-11-15T16:25:36;6.75;;;4.93;;
22711;SDS011;11523;50.390;8.072;2022-11-15T16:28:02;7.03;;;4.80;;
22711;SDS011;11523;50.390;8.072;2022-11-15T16:30:28;7.38;;;4.93;;
22711;SDS011;11523;50.390;8.072;2022-11-15T16:32:54;6.45;;;5.15;;
22711;SDS011;11523;50.390;8.072;2022-11-15T16:35:20;5.25;;;4.50;;
22711;SDS011;11523;50.390;8.072;2022-11-15T16:37:46;8.50;;;4.88;;
22711;SDS011;11523;50.390;8.072;2022-11-15T16:40:26;7.60;;;4.85;;
22711;SDS011;11523;50.390;8.072;2022-11-15T16:42:52;5.70;;;4.75;;
22711;SDS011;11523;50.390;8.072;2022-11-15T16:45:20;5.63;;;4.47;;
22711;SDS011;11523;50.390;8.072;2022-11-15T16:47:46;4.55;;;4.15;;
22711;SDS011;11523;50.390;8.072;2022-11-15T16:50:17;4.80;;;4.30;;
22711;SDS011;11523;50.390;8.072;2022-11-15T16:52:47;6.18;;;3.88;;
22711;SDS011;11523;50.390;8.072;2022-11-15T16:55:13;6.18;;;5.03;;
22711;SDS011;11523;50.390;8.072;2022-11-15T16:57:39;6.88;;;4.95;;
22711;SDS011;11523;50.390;8.072;2022-11-15T17:00:05;5.63;;;4.43;;
22711;SDS011;11523;50.390;8.072;2022-11-15T17:02:32;5.22;;;4.45;;
22711;SDS011;11523;50.390;8.072;2022-11-15T17:04:58;7.18;;;4.78;;
22711;SDS011;11523;50.390;8.072;2022-11-15T17:07:24;5.55;;;4.57;;
22711;SDS011;11523;50.390;8.072;2022-11-15T17:09:50;5.97;;;4.55;;
22711;SDS011;11523;50.390;8.072;2022-11-15T17:12:16;7.18;;;4.15;;
22711;SDS011;11523;50.390;8.072;2022-11-15T17:14:41;7.35;;;5.05;;
22711;SDS011;11523;50.390;8.072;2022-11-15T17:17:09;7.47;;;4.75;;
22711;SDS011;11523;50.390;8.072;2022-11-15T17:19:36;7.57;;;4.57;;
22711;SDS011;11523;50.390;8.072;2022-11-15T17:22:02;8.52;;;4.57;;
22711;SDS011;11523;50.390;8.072;2022-11-15T17:24:28;6.78;;;4.80;;
22711;SDS011;11523;50.390;8.072;2022-11-15T17:26:53;5.32;;;4.10;;
22711;SDS011;11523;50.390;8.072;2022-11-15T17:29:19;5.50;;;4.00;;
22711;SDS011;11523;50.390;8.072;2022-11-15T17:31:45;7.93;;;4.47;;
22711;SDS011;11523;50.390;8.072;2022-11-15T17:34:11;8.75;;;4.80;;
22711;SDS011;11523;50.390;8.072;2022-11-15T17:36:37;6.93;;;4.85;;
22711;SDS011;11523;50.390;8.072;2022-11-15T17:39:03;7.40;;;4.80;;
22711;SDS011;11523;50.390;8.072;2022-11-15T17:41:29;6.30;;;4.68;;
22711;SDS011;11523;50.390;8.072;2022-11-15T17:43:56;5.18;;;4.63;;
22711;SDS011;11523;50.390;8.072;2022-11-15T17:46:23;5.53;;;4.47;;
22711;SDS011;11523;50.390;8.072;2022-11-15T17:48:49;5.90;;;4.45;;
22711;SDS011;11523;50.390;8.072;2022-11-15T17:51:16;8.38;;;4.60;;
22711;SDS011;11523;50.390;8.072;2022-11-15T17:53:43;5.90;;;4.35;;
22711;SDS011;11523;50.390;8.072;2022-11-15T17:56:10;6.20;;;4.50;;
22711;SDS011;11523;50.390;8.072;2022-11-15T17:58:37;7.47;;;4.95;;
22711;SDS011;11523;50.390;8.072;2022-11-15T18:01:11;9.25;;;5.38;;
22711;SDS011;11523;50.390;8.072;2022-11-15T18:03:40;6.05;;;5.22;;
22711;SDS011;11523;50.390;8.072;2022-11-15T18:06:06;8.90;;;6.10;;
22711;SDS011;11523;50.390;8.072;2022-11-15T18:08:36;7.57;;;5.18;;
22711;SDS011;11523;50.390;8.072;2022-11-15T18:11:06;6.68;;;5.25;;
22711;SDS011;11523;50.390;8.072;2022-11-15T18:13:36;7.28;;;5.40;;
22711;SDS011;11523;50.390;8.072;2022-11-15T18:16:03;8.60;;;5.00;;
22711;SDS011;11523;50.390;8.072;2022-11-15T18:18:30;9.07;;;5.53;;
22711;SDS011;11523;50.390;8.072;2022-11-15T18:21:29;6.65;;;4.72;;
22711;SDS011;11523;50.390;8.072;2022-11-15T18:23:51;6.75;;;4.97;;
22711;SDS011;11523;50.390;8.072;2022-11-15T18:26:17;7.43;;;5.30;;
22711;SDS011;11523;50.390;8.072;2022-11-15T18:28:44;6.90;;;5.30;;
22711;SDS011;11523;50.390;8.072;2022-11-15T18:31:15;7.85;;;5.00;;
22711;SDS011;11523;50.390;8.072;2022-11-15T18:33:41;6.28;;;5.30;;
22711;SDS011;11523;50.390;8.072;2022-11-15T18:36:08;5.90;;;4.57;;
22711;SDS011;11523;50.390;8.072;2022-11-15T18:38:34;6.57;;;5.00;;
22711;SDS011;11523;50.390;8.072;2022-11-15T18:41:04;6.30;;;5.30;;
22711;SDS011;11523;50.390;8.072;2022-11-15T18:43:30;7.47;;;5.55;;
22711;SDS011;11523;50.390;8.072;2022-11-15T18:46:07;7.10;;;5.68;;
22711;SDS011;11523;50.390;8.072;2022-11-15T18:48:34;7.35;;;5.50;;
22711;SDS011;11523;50.390;8.072;2022-11-15T18:51:09;10.10;;;4.93;;
22711;SDS011;11523;50.390;8.072;2022-11-15T18:53:35;9.57;;;5.45;;
22711;SDS011;11523;50.390;8.072;2022-11-15T18:56:02;9.00;;;5.75;;
22711;SDS011;11523;50.390;8.072;2022-11-15T18:58:33;8.23;;;5.93;;
22711;SDS011;11523;50.390;8.072;2022-11-15T19:01:03;7.10;;;6.10;;
22711;SDS011;11523;50.390;8.072;2022-11-15T19:03:30;7.38;;;5.70;;
22711;SDS011;11523;50.390;8.072;2022-11-15T19:06:04;11.10;;;6.15;;
22711;SDS011;11523;50.390;8.072;2022-11-15T19:08:30;9.27;;;7.00;;
22711;SDS011;11523;50.390;8.072;2022-11-15T19:11:01;9.05;;;7.30;;
22711;SDS011;11523;50.390;8.072;2022-11-15T19:13:27;7.90;;;6.80;;
22711;SDS011;11523;50.390;8.072;2022-11-15T19:15:59;8.73;;;6.60;;
22711;SDS011;11523;50.390;8.072;2022-11-15T19:18:26;9.63;;;7.47;;
22711;SDS011;11523;50.390;8.072;2022-11-15T19:20:52;10.55;;;6.85;;
22711;SDS011;11523;50.390;8.072;2022-11-15T19:23:19;11.10;;;7.05;;
22711;SDS011;11523;50.390;8.072;2022-11-15T19:25:52;8.15;;;7.13;;
22711;SDS011;11523;50.390;8.072;2022-11-15T19:28:18;9.57;;;6.88;;
22711;SDS011;11523;50.390;8.072;2022-11-15T19:30:44;8.68;;;7.18;;
22711;SDS011;11523;50.390;8.072;2022-11-15T19:33:10;11.63;;;7.75;;
22711;SDS011;11523;50.390;8.072;2022-11-15T19:35:36;9.05;;;7.55;;
22711;SDS011;11523;50.390;8.072;2022-11-15T19:38:02;7.93;;;6.63;;
22711;SDS011;11523;50.390;8.072;2022-11-15T19:40:28;8.93;;;7.10;;
22711;SDS011;11523;50.390;8.072;2022-11-15T19:42:55;9.38;;;7.38;;
22711;SDS011;11523;50.390;8.072;2022-11-15T19:45:21;11.90;;;8.23;;
22711;SDS011;11523;50.390;8.072;2022-11-15T19:47:53;10.20;;;7.45;;
22711;SDS011;11523;50.390;8.072;2022-11-15T19:50:19;10.68;;;7.68;;
22711;SDS011;11523;50.390;8.072;2022-11-15T19:52:45;8.32;;;7.03;;
22711;SDS011;11523;50.390;8.072;2022-11-15T19:55:11;10.60;;;7.68;;
22711;SDS011;11523;50.390;8.072;2022-11-15T19:57:37;9.48;;;8.00;;
22711;SDS011;11523;50.390;8.072;2022-11-15T20:00:03;9.68;;;8.05;;
22711;SDS011;11523;50.390;8.072;2022-11-15T20:02:30;9.60;;;7.45;;
22711;SDS011;11523;50.390;8.072;2022-11-15T20:04:56;9.90;;;7.80;;
22711;SDS011;11523;50.390;8.072;2022-11-15T20:07:21;11.23;;;7.88;;
22711;SDS011;11523;50.390;8.072;2022-11-15T20:09:47;8.20;;;6.53;;
22711;SDS011;11523;50.390;8.072;2022-11-15T20:12:13;8.82;;;7.32;;
22711;SDS011;11523;50.390;8.072;2022-11-15T20:14:39;10.18;;;7.10;;
22711;SDS011;11523;50.390;8.072;2022-11-15T20:17:05;9.90;;;7.63;;
22711;SDS011;11523;50.390;8.072;2022-11-15T20:19:31;7.00;;;6.30;;
22711;SDS011;11523;50.390;8.072;2022-11-15T20:21:57;8.77;;;7.25;;
22711;SDS011;11523;50.390;8.072;2022-11-15T20:24:23;7.78;;;6.60;;
22711;SDS011;11523;50.390;8.072;2022-11-15T20:26:50;10.02;;;7.55;;
22711;SDS011;11523;50.390;8.072;2022-11-15T20:29:16;10.60;;;7.65;;
22711;SDS011;11523;50.390;8.072;2022-11-15T20:31:42;9.10;;;7.05;;
22711;SDS011;11523;50.390;8.072;2022-11-15T20:34:08;8.02;;;6.53;;
22711;SDS011;11523;50.390;8.072;2022-11-15T20:36:34;8.73;;;6.85;;
22711;SDS011;11523;50.390;8.072;2022-11-15T20:39:00;8.13;;;6.70;;
22711;SDS011;11523;50.390;8.072;2022-11-15T20:41:26;10.63;;;7.65;;
22711;SDS011;11523;50.390;8.072;2022-11-15T20:43:52;11.07;;;7.07;;
22711;SDS011;11523;50.390;8.072;2022-11-15T20:46:18;8.50;;;6.85;;